KBBG

Branson Airport

Airport
ICAO code
KBBG
IATA Code
BKG
Summary
ICAO Region
NAM
ICAO Territory
Location

Melva, Missouri

Serving
Branson
Elevation
1302 ft
Coordinates
36° 32' 19" N , 93° 11' 56" W
KCC
Metar
KBBG 151845Z 13009KT 10SM CLR 27/17 A2992

Description

Branson Airport is a public use airport located 8 nm south-southeast of Branson, Missouri, USA.

Airport map

Aerial View

SKYbrary Partners:

Safety knowledge contributed by: